Time;durP1;ratioP1;P1;durP2;ratioP2;P2;SDS_P1;SDS_P2;PMS_P1;PMS_P2;Temp;Humidity;BMP_temperature;BMP_pressure;BME280_temperature;BME280_humidity;BME280_pressure;Samples;Min_cycle;Max_cycle;Signal;HPM_P1;HPM_P2
2021/07/04 00:00:28;;;;;;;4.35;2.98;;;;;;;13.99;84.72;95376.23;1796343;80;21044;-58
2021/07/04 00:02:59;;;;;;;7.97;3.98;;;;;;;14.00;85.29;95369.14;1796150;80;21080;-59
2021/07/04 00:05:31;;;;;;;4.42;2.67;;;;;;;14.05;85.91;95370.70;1796411;80;20969;-58
2021/07/04 00:07:58;;;;;;;4.50;2.98;;;;;;;14.09;85.21;95366.64;1796481;80;21048;-59
2021/07/04 00:10:29;;;;;;;7.05;3.25;;;;;;;14.13;85.27;95362.93;1795885;80;21028;-58
2021/07/04 00:12:57;;;;;;;5.47;3.02;;;;;;;14.12;85.43;95367.84;1796371;80;21440;-59
2021/07/04 00:15:27;;;;;;;3.17;2.83;;;;;;;14.16;85.38;95360.16;1764973;80;21486;-58
2021/07/04 00:17:54;;;;;;;6.50;3.00;;;;;;;14.19;85.11;95363.59;1796474;80;21052;-59
2021/07/04 00:20:22;;;;;;;8.10;3.33;;;;;;;14.21;85.74;95367.06;1796603;80;20946;-58
2021/07/04 00:22:55;;;;;;;3.75;3.15;;;;;;;14.24;85.91;95357.65;1796066;79;21011;-58
2021/07/04 00:25:18;;;;;;;5.37;3.37;;;;;;;14.33;85.75;95360.88;1795200;80;21000;-59
2021/07/04 00:27:45;;;;;;;4.58;3.15;;;;;;;14.42;85.86;95355.23;1796280;79;21042;-59
2021/07/04 00:30:14;;;;;;;5.05;3.05;;;;;;;14.53;85.76;95351.73;1796500;79;21020;-59
2021/07/04 00:32:42;;;;;;;3.25;2.95;;;;;;;14.56;85.14;95350.75;1796372;79;21467;-59
2021/07/04 00:35:12;;;;;;;4.53;2.90;;;;;;;14.64;85.05;95346.91;1796202;80;21494;-59
2021/07/04 00:37:39;;;;;;;3.47;2.90;;;;;;;14.71;84.81;95347.04;1796437;80;21013;-58
2021/07/04 00:40:07;;;;;;;4.03;2.75;;;;;;;14.69;84.12;95338.73;1796302;80;21502;-58
2021/07/04 00:42:35;;;;;;;3.45;2.92;;;;;;;14.69;84.15;95340.95;1796055;80;21362;-59
2021/07/04 00:45:10;;;;;;;4.17;3.17;;;;;;;14.70;83.97;95341.34;1796389;80;20961;-59
2021/07/04 00:47:37;;;;;;;4.20;3.10;;;;;;;14.69;84.14;95336.97;1794444;80;21025;-58
2021/07/04 00:50:06;;;;;;;4.67;3.17;;;;;;;14.76;84.60;95330.93;1796272;80;21491;-58
2021/07/04 00:52:34;;;;;;;7.78;2.70;;;;;;;14.74;84.37;95329.27;1796464;79;21013;-58
2021/07/04 00:55:04;;;;;;;4.85;3.67;;;;;;;14.77;84.42;95324.72;1796778;80;20981;-59
2021/07/04 00:57:32;;;;;;;3.42;2.90;;;;;;;14.89;84.44;95328.66;1795932;80;21013;-59
2021/07/04 01:00:01;;;;;;;5.00;3.30;;;;;;;14.92;84.01;95325.91;1796340;79;21064;-59
2021/07/04 01:02:28;;;;;;;5.58;3.17;;;;;;;14.95;84.02;95324.91;1796335;80;21056;-59
2021/07/04 01:04:55;;;;;;;5.62;3.37;;;;;;;14.96;83.55;95325.30;1796233;79;21008;-59
2021/07/04 01:07:22;;;;;;;6.70;3.85;;;;;;;14.94;83.28;95324.02;1796366;80;21016;-59
2021/07/04 01:22:23;;;;;;;9.28;4.37;;;;;;;15.55;80.27;95298.05;1860109;77;22217;-59
2021/07/04 01:24:50;;;;;;;7.30;3.90;;;;;;;15.26;80.90;95310.77;1832467;78;20972;-59
2021/07/04 01:27:18;;;;;;;4.28;3.75;;;;;;;15.07;81.07;95308.02;1794992;78;21031;-59
2021/07/04 01:29:44;;;;;;;5.15;3.72;;;;;;;14.94;81.68;95306.75;1832226;78;21008;-59
2021/07/04 01:32:11;;;;;;;6.33;3.37;;;;;;;14.82;82.18;95302.82;1832275;78;21000;-58
2021/07/04 01:34:38;;;;;;;7.62;3.77;;;;;;;14.68;82.30;95303.35;1832056;78;21083;-58
2021/07/04 01:37:06;;;;;;;4.92;3.77;;;;;;;14.62;82.98;95296.97;1832267;78;21027;-58
2021/07/04 01:39:34;;;;;;;5.85;3.95;;;;;;;14.50;83.55;95303.57;1832063;78;21572;-59
2021/07/04 01:42:03;;;;;;;7.17;4.30;;;;;;;14.44;83.68;95296.33;1832376;78;20999;-59
2021/07/04 01:44:30;;;;;;;6.28;4.55;;;;;;;14.32;83.96;95293.67;1832226;78;21500;-58
2021/07/04 01:46:57;;;;;;;5.65;4.15;;;;;;;14.25;84.47;95302.31;1832465;78;20944;-59
2021/07/04 01:49:26;;;;;;;6.22;4.42;;;;;;;14.29;84.83;95302.61;1831770;78;21058;-59
2021/07/04 01:51:54;;;;;;;8.78;4.45;;;;;;;14.32;84.85;95302.95;1832142;78;21003;-58
2021/07/04 01:54:22;;;;;;;5.83;4.47;;;;;;;14.31;84.96;95306.98;1830871;78;21579;-58
2021/07/04 01:56:49;;;;;;;4.70;3.17;;;;;;;14.32;84.99;95309.59;1832366;78;20980;-58
2021/07/04 01:59:17;;;;;;;4.95;3.60;;;;;;;14.36;84.67;95306.34;1831949;78;21083;-58
2021/07/04 02:01:45;;;;;;;6.45;3.50;;;;;;;14.32;85.14;95308.73;1831456;78;20993;-59
2021/07/04 02:04:13;;;;;;;4.65;3.80;;;;;;;14.34;85.32;95301.55;1831927;78;21051;-58
2021/07/04 02:06:41;;;;;;;5.60;4.08;;;;;;;14.29;85.19;95307.92;1832169;78;21035;-58
2021/07/04 02:09:09;;;;;;;8.63;5.00;;;;;;;14.24;85.42;95309.89;1832824;78;20995;-58
2021/07/04 02:11:36;;;;;;;6.92;4.50;;;;;;;14.28;86.11;95309.30;1832158;78;20965;-58
2021/07/04 02:14:05;;;;;;;6.28;3.90;;;;;;;14.37;85.86;95302.79;1831920;78;21043;-58
2021/07/04 02:16:45;;;;;;;5.17;3.80;;;;;;;14.41;85.83;95309.69;1829740;78;20992;-59
2021/07/04 02:19:23;;;;;;;5.72;3.85;;;;;;;14.47;85.84;95302.84;1793388;78;21024;-59
2021/07/04 02:21:59;;;;;;;5.30;3.77;;;;;;;14.46;85.31;95301.98;1827310;78;21017;-59
2021/07/04 02:24:29;;;;;;;4.75;4.33;;;;;;;14.47;85.36;95302.84;1827873;78;20973;-59
2021/07/04 02:26:59;;;;;;;6.50;4.20;;;;;;;14.52;85.71;95302.20;1831663;78;21043;-59
2021/07/04 02:29:28;;;;;;;7.12;4.30;;;;;;;14.60;85.62;95308.10;1827927;78;21558;-58
2021/07/04 02:31:56;;;;;;;6.22;4.10;;;;;;;14.69;85.63;95306.86;1831438;78;21075;-59
2021/07/04 02:34:29;;;;;;;4.72;3.72;;;;;;;14.69;85.08;95309.52;1831837;78;20980;-58
2021/07/04 02:36:58;;;;;;;;;;;;;;;14.69;84.71;95322.80;1834021;78;21111;-59
2021/07/04 02:39:26;;;;;;;6.25;3.70;;;;;;;14.68;84.47;95321.08;1831721;78;20161;-59
2021/07/04 02:41:55;;;;;;;7.62;3.80;;;;;;;14.62;84.35;95322.19;1831069;78;21552;-58
2021/07/04 02:44:22;;;;;;;5.08;3.45;;;;;;;14.57;84.13;95329.47;1831717;78;21023;-58
2021/07/04 02:46:49;;;;;;;4.40;3.45;;;;;;;14.63;84.67;95320.39;1831284;78;21019;-59
2021/07/04 02:49:17;;;;;;;6.92;3.95;;;;;;;14.65;84.72;95326.52;1831537;78;20957;-58
2021/07/04 02:51:45;;;;;;;4.08;3.67;;;;;;;14.64;84.64;95330.97;1832088;78;21003;-58
2021/07/04 02:54:13;;;;;;;5.55;4.05;;;;;;;14.63;84.76;95325.23;1831937;78;20971;-59
2021/07/04 02:56:40;;;;;;;7.95;4.12;;;;;;;14.62;84.90;95328.83;1831412;78;21549;-59
2021/07/04 02:59:08;;;;;;;5.58;3.72;;;;;;;14.73;85.41;95325.75;1831661;78;21058;-58
2021/07/04 03:01:35;;;;;;;6.50;4.08;;;;;;;14.76;85.11;95320.31;1831717;78;20956;-59
2021/07/04 03:04:02;;;;;;;5.78;4.03;;;;;;;14.77;85.05;95319.88;1831684;78;21023;-58
2021/07/04 03:06:29;;;;;;;4.78;4.30;;;;;;;14.86;85.25;95328.78;1831707;78;21098;-59
2021/07/04 03:08:56;;;;;;;4.67;3.70;;;;;;;14.98;85.23;95330.95;1831685;78;21421;-59
2021/07/04 03:11:23;;;;;;;6.58;4.00;;;;;;;15.02;84.41;95336.56;1831333;78;21516;-58
2021/07/04 03:13:50;;;;;;;4.58;3.90;;;;;;;15.01;83.95;95333.48;1832030;78;21077;-59
2021/07/04 03:16:18;;;;;;;4.58;3.30;;;;;;;14.96;83.58;95335.93;1831592;78;21039;-59
2021/07/04 03:18:46;;;;;;;7.17;4.30;;;;;;;14.84;83.28;95339.92;1831809;78;20980;-58
2021/07/04 03:21:12;;;;;;;3.72;3.27;;;;;;;14.82;83.81;95340.01;1831328;78;21016;-59
2021/07/04 03:23:39;;;;;;;5.33;4.00;;;;;;;14.80;83.93;95341.84;1831365;78;21043;-59
2021/07/04 03:26:08;;;;;;;4.72;3.80;;;;;;;14.77;84.20;95338.46;1831966;78;21012;-58
2021/07/04 03:28:35;;;;;;;8.35;3.83;;;;;;;14.79;84.78;95330.84;1831536;78;21119;-59
2021/07/04 03:31:09;;;;;;;5.20;4.08;;;;;;;14.82;84.97;95339.15;1830329;78;21046;-58
2021/07/04 03:33:37;;;;;;;5.00;4.10;;;;;;;14.83;84.98;95347.03;1831859;78;21003;-58
2021/07/04 03:36:05;;;;;;;4.55;4.15;;;;;;;14.90;84.92;95347.20;1831295;78;21091;-58
2021/07/04 03:38:32;;;;;;;4.22;3.83;;;;;;;14.93;84.85;95352.39;1831790;78;21501;-59
2021/07/04 03:40:59;;;;;;;5.35;3.45;;;;;;;15.02;84.82;95357.81;1831354;78;21055;-58
2021/07/04 03:43:30;;;;;;;4.37;3.98;;;;;;;15.00;84.45;95356.15;1831533;78;20952;-58
2021/07/04 03:45:57;;;;;;;5.67;4.00;;;;;;;14.98;84.28;95353.54;1831756;78;20956;-58
2021/07/04 03:48:25;;;;;;;4.47;4.00;;;;;;;14.99;84.38;95359.71;1831579;78;21532;-59
2021/07/04 03:50:53;;;;;;;4.00;3.47;;;;;;;15.03;84.36;95362.66;1829495;78;21070;-58
2021/07/04 03:53:21;;;;;;;5.67;4.17;;;;;;;15.03;84.48;95355.55;1831967;78;20960;-58
2021/07/04 03:55:48;;;;;;;4.83;3.80;;;;;;;15.02;84.17;95348.52;1831463;78;21014;-58
2021/07/04 03:58:16;;;;;;;4.12;3.77;;;;;;;14.93;84.74;95348.88;1831460;78;21034;-59
2021/07/04 04:00:43;;;;;;;4.85;3.90;;;;;;;14.90;84.30;95352.52;1831724;78;21007;-58
2021/07/04 04:03:14;;;;;;;4.70;4.30;;;;;;;14.88;85.28;95343.73;1831644;78;21015;-59
2021/07/04 04:05:42;;;;;;;5.35;4.25;;;;;;;14.96;85.72;95347.88;1830378;78;21103;-58
2021/07/04 04:08:08;;;;;;;8.45;5.37;;;;;;;14.93;84.93;95344.89;1831674;78;21446;-58
2021/07/04 04:10:36;;;;;;;5.80;5.05;;;;;;;15.02;85.00;95346.30;1831522;78;21190;-59
2021/07/04 04:13:04;;;;;;;7.85;5.97;;;;;;;15.10;85.55;95341.09;1830894;78;20979;-58
2021/07/04 04:15:32;;;;;;;5.78;5.22;;;;;;;15.18;84.93;95341.25;1831696;78;21054;-59
2021/07/04 04:17:58;;;;;;;8.33;5.80;;;;;;;15.20;84.73;95346.05;1831875;78;20971;-59
2021/07/04 04:20:26;;;;;;;6.30;5.70;;;;;;;15.29;84.84;95340.34;1831717;78;21521;-59
2021/07/04 04:22:52;;;;;;;5.35;4.85;;;;;;;15.35;84.32;95341.44;1834718;78;20999;-59
2021/07/04 04:25:19;;;;;;;5.78;5.12;;;;;;;15.33;84.09;95341.95;1745962;82;21044;-59
2021/07/04 04:27:47;;;;;;;9.68;5.17;;;;;;;15.33;83.79;95341.95;1767938;81;21022;-58
2021/07/04 04:30:17;;;;;;;6.50;4.97;;;;;;;15.40;84.01;95346.09;1795385;80;21053;-58
2021/07/04 04:32:46;;;;;;;8.23;5.53;;;;;;;15.46;83.96;95348.48;1795888;80;20982;-58
2021/07/04 04:35:13;;;;;;;6.10;4.58;;;;;;;15.51;84.17;95347.83;1795421;80;21032;-58
2021/07/04 04:37:40;;;;;;;12.93;4.90;;;;;;;15.52;84.52;95350.91;1795503;80;21012;-59
2021/07/04 04:40:09;;;;;;;5.62;5.03;;;;;;;15.57;84.48;95355.56;1795270;80;21569;-58
2021/07/04 04:42:36;;;;;;;7.05;4.67;;;;;;;15.65;84.57;95351.25;1795887;80;21044;-59
2021/07/04 04:45:04;;;;;;;6.78;5.05;;;;;;;15.73;84.52;95354.48;1795361;80;21009;-58
2021/07/04 04:47:31;;;;;;;5.42;4.65;;;;;;;15.73;84.52;95354.48;1762012;80;20977;-59
2021/07/04 04:49:58;;;;;;;6.20;4.70;;;;;;;15.72;84.23;95355.42;1795519;80;21069;-59
2021/07/04 04:52:25;;;;;;;8.85;4.90;;;;;;;15.66;84.25;95358.28;1795633;80;20972;-59
2021/07/04 04:54:52;;;;;;;5.40;4.90;;;;;;;15.67;84.66;95350.70;1795444;80;21009;-59
2021/07/04 04:57:18;;;;;;;6.75;5.00;;;;;;;15.66;84.48;95354.77;1795613;80;21029;-58
2021/07/04 04:59:45;;;;;;;4.83;4.12;;;;;;;15.70;84.77;95361.70;1795415;80;21078;-58
2021/07/04 05:02:11;;;;;;;7.45;4.90;;;;;;;15.71;84.97;95358.13;1795650;80;21013;-58
2021/07/04 05:04:38;;;;;;;6.85;5.05;;;;;;;15.74;84.94;95353.53;1795381;80;21093;-59
2021/07/04 05:07:05;;;;;;;5.58;4.53;;;;;;;15.76;84.65;95354.81;1795504;80;21510;-59
2021/07/04 05:09:31;;;;;;;6.97;4.85;;;;;;;15.75;83.86;95354.42;1761786;80;21101;-59
2021/07/04 05:11:57;;;;;;;6.42;4.97;;;;;;;15.80;84.43;95367.06;1795661;80;21040;-58
2021/07/04 05:14:24;;;;;;;5.12;4.60;;;;;;;15.84;84.55;95370.44;1795283;80;21021;-59
2021/07/04 05:16:51;;;;;;;5.37;4.67;;;;;;;15.85;84.14;95367.73;1795726;80;20946;-59
2021/07/04 05:19:17;;;;;;;7.28;5.08;;;;;;;15.85;84.14;95367.73;1795778;80;20957;-59
2021/07/04 05:21:44;;;;;;;5.90;5.00;;;;;;;15.94;84.80;95368.64;1795704;80;21081;-59
2021/07/04 05:24:12;;;;;;;5.20;4.62;;;;;;;15.97;84.72;95376.95;1796059;80;21575;-59
2021/07/04 05:26:40;;;;;;;4.87;4.37;;;;;;;15.96;84.50;95373.91;1796293;80;21028;-59
2021/07/04 05:29:08;;;;;;;6.87;4.80;;;;;;;16.06;84.71;95375.71;1796322;79;21005;-59
2021/07/04 05:31:35;;;;;;;6.22;4.80;;;;;;;16.14;83.88;95370.91;1796212;80;21008;-58
2021/07/04 05:34:02;;;;;;;9.38;4.95;;;;;;;16.14;83.88;95370.91;1796208;80;21005;-59
2021/07/04 05:36:29;;;;;;;7.37;4.55;;;;;;;16.12;83.16;95374.09;1796272;80;20981;-58
2021/07/04 05:38:55;;;;;;;5.47;4.40;;;;;;;16.12;83.37;95377.62;1796343;79;21471;-58
2021/07/04 05:41:22;;;;;;;7.03;5.12;;;;;;;16.17;83.52;95379.61;1796262;80;21020;-59
2021/07/04 05:43:49;;;;;;;5.58;5.08;;;;;;;16.28;83.18;95380.94;1796212;79;21006;-59
2021/07/04 05:46:16;;;;;;;5.75;5.10;;;;;;;16.28;83.18;95380.94;1796158;80;21048;-59
2021/07/04 05:48:45;;;;;;;5.97;5.05;;;;;;;16.36;83.65;95394.80;1795918;80;21059;-59
2021/07/04 05:51:12;;;;;;;4.95;4.45;;;;;;;16.40;83.44;95391.93;1796142;79;21044;-58
2021/07/04 05:53:38;;;;;;;7.12;4.58;;;;;;;16.45;83.05;95395.69;1796043;79;21025;-58
2021/07/04 05:56:05;;;;;;;8.38;4.75;;;;;;;16.43;82.01;95407.77;1796124;79;20993;-59
2021/07/04 05:58:32;;;;;;;7.00;4.80;;;;;;;16.43;82.01;95407.77;1796301;79;21008;-59
2021/07/04 06:00:58;;;;;;;5.70;4.67;;;;;;;16.35;81.56;95408.55;1796609;79;20985;-58
2021/07/04 06:03:24;;;;;;;6.30;4.90;;;;;;;16.25;81.43;95413.88;1796373;80;21001;-59
2021/07/04 06:05:51;;;;;;;8.63;5.28;;;;;;;16.22;82.27;95410.03;1796907;80;20930;-59
2021/07/04 06:08:19;;;;;;;5.50;4.90;;;;;;;16.20;82.66;95410.11;1796540;79;21005;-58
2021/07/04 06:10:46;;;;;;;5.87;4.90;;;;;;;16.21;82.41;95410.97;1796422;80;21017;-59
2021/07/04 06:13:13;;;;;;;5.80;5.17;;;;;;;16.20;82.20;95419.87;1796241;79;21024;-59
2021/07/04 06:15:40;;;;;;;6.10;5.10;;;;;;;16.21;81.94;95415.83;1796198;80;21045;-59
2021/07/04 06:18:06;;;;;;;6.85;5.05;;;;;;;16.20;82.05;95410.55;1796202;80;21510;-59
2021/07/04 06:20:33;;;;;;;5.60;5.10;;;;;;;16.27;82.65;95417.34;1796331;80;21032;-59
2021/07/04 06:22:59;;;;;;;7.50;5.10;;;;;;;16.35;82.42;95418.34;1796355;80;21515;-58
2021/07/04 06:25:26;;;;;;;5.85;5.03;;;;;;;16.41;82.17;95422.08;1796529;79;20949;-59
2021/07/04 06:27:53;;;;;;;6.53;5.45;;;;;;;16.39;82.06;95421.28;1796288;80;21043;-59
2021/07/04 06:30:20;;;;;;;5.30;4.80;;;;;;;16.35;81.79;95417.01;1796441;80;21029;-59
2021/07/04 06:32:47;;;;;;;7.35;4.85;;;;;;;16.36;82.29;95413.43;1796224;80;21045;-59
2021/07/04 06:35:15;;;;;;;5.90;3.83;;;;;;;16.39;82.40;95418.14;1796662;80;21023;-59
2021/07/04 06:37:43;;;;;;;6.40;3.37;;;;;;;16.39;82.41;95418.14;1796171;80;20969;-59
2021/07/04 06:40:12;;;;;;;3.47;3.17;;;;;;;16.41;81.26;95412.29;1796371;79;20981;-58
2021/07/04 06:42:39;;;;;;;3.05;2.77;;;;;;;16.35;80.11;95412.54;1796226;79;21051;-59
2021/07/04 06:45:09;;;;;;;5.42;2.67;;;;;;;16.29;80.33;95421.28;1796277;80;20989;-59
2021/07/04 06:47:41;;;;;;;3.65;3.20;;;;;;;16.35;81.61;95414.34;1796092;79;21024;-59
2021/07/04 06:50:10;;;;;;;6.00;3.80;;;;;;;16.35;81.61;95414.34;1796493;80;21482;-59
2021/07/04 06:52:37;;;;;;;4.03;3.40;;;;;;;16.54;82.01;95413.08;1796426;79;21005;-59
2021/07/04 06:55:09;;;;;;;5.08;3.75;;;;;;;16.73;81.36;95407.77;1796052;79;21020;-59
2021/07/04 06:57:36;;;;;;;5.47;4.05;;;;;;;16.79;80.98;95404.40;1796223;79;21538;-59
2021/07/04 07:00:16;;;;;;;4.83;3.60;;;;;;;16.96;80.37;95392.08;1795806;80;21040;-59
2021/07/04 07:02:43;;;;;;;5.55;3.30;;;;;;;17.21;80.82;95390.45;1796338;80;21071;-59
2021/07/04 07:05:12;;;;;;;5.35;4.33;;;;;;;17.36;79.56;95387.52;1796016;80;21005;-59
2021/07/04 07:07:40;;;;;;;6.53;4.65;;;;;;;17.45;77.35;95390.60;1796235;79;21000;-59
2021/07/04 07:10:10;;;;;;;5.37;4.87;;;;;;;17.62;79.15;95392.45;1796339;80;21001;-58
2021/07/04 07:12:38;;;;;;;10.65;4.80;;;;;;;17.78;78.56;95393.02;1796218;79;21032;-59
2021/07/04 07:15:07;;;;;;;7.72;5.35;;;;;;;17.92;77.51;95394.56;1796402;79;20946;-59
2021/07/04 07:17:34;;;;;;;5.55;4.97;;;;;;;18.03;78.01;95399.34;1796402;80;21082;-58
2021/07/04 07:20:06;;;;;;;6.42;5.60;;;;;;;18.17;77.51;95403.52;1796466;80;21139;-58
2021/07/04 07:22:33;;;;;;;7.70;6.42;;;;;;;18.23;77.53;95395.66;1792730;80;21479;-59
2021/07/04 07:25:00;;;;;;;7.62;5.80;;;;;;;18.12;75.26;95398.89;1787662;80;21479;-59
2021/07/04 07:27:27;;;;;;;9.05;5.85;;;;;;;18.18;75.52;95392.36;1752061;80;21033;-59
2021/07/04 07:29:55;;;;;;;7.22;6.05;;;;;;;18.36;76.25;95381.56;1786714;80;21025;-59
2021/07/04 07:32:22;;;;;;;7.55;5.53;;;;;;;18.55;76.79;95381.47;1787799;80;21032;-59
2021/07/04 07:34:49;;;;;;;7.75;5.80;;;;;;;18.70;75.85;95381.13;1787657;80;21483;-59
2021/07/04 07:37:15;;;;;;;6.35;5.42;;;;;;;18.82;75.78;95379.61;1787737;80;21486;-59
2021/07/04 07:39:42;;;;;;;7.90;6.03;;;;;;;18.91;75.10;95376.92;1787814;80;21502;-58
2021/07/04 07:42:10;;;;;;;5.60;5.00;;;;;;;19.01;75.63;95377.66;1782224;80;21022;-59
2021/07/04 07:44:37;;;;;;;8.63;5.72;;;;;;;19.06;73.66;95376.56;1787374;80;21057;-59
2021/07/04 07:47:05;;;;;;;7.28;5.30;;;;;;;19.16;73.45;95379.11;1787831;80;21040;-59
2021/07/04 07:49:32;;;;;;;6.97;4.70;;;;;;;19.16;72.25;95381.30;1787761;80;20954;-59
2021/07/04 07:51:59;;;;;;;6.55;4.62;;;;;;;19.21;72.73;95385.91;1787572;80;21084;-59
2021/07/04 07:54:28;;;;;;;5.40;4.80;;;;;;;19.21;71.17;95383.24;1786408;80;21018;-59
2021/07/04 07:56:55;;;;;;;6.27;5.33;;;;;;;19.21;71.18;95391.27;1787539;80;21092;-59
2021/07/04 07:59:22;;;;;;;7.55;5.00;;;;;;;19.20;71.14;95392.67;1787711;80;21053;-59
2021/07/04 08:01:49;;;;;;;5.42;4.85;;;;;;;19.28;70.87;95399.83;1787474;80;21478;-60
2021/07/04 08:04:15;;;;;;;5.78;4.80;;;;;;;19.35;70.98;95398.53;1787628;80;20966;-59
2021/07/04 08:06:42;;;;;;;8.40;5.10;;;;;;;19.41;71.05;95395.50;1787587;80;21049;-59
2021/07/04 08:09:09;;;;;;;8.13;6.10;;;;;;;19.45;70.62;95398.41;1787296;80;21053;-59
2021/07/04 08:11:42;;;;;;;8.18;6.65;;;;;;;19.47;70.07;95391.61;1785936;80;21519;-60
2021/07/04 08:14:09;;;;;;;7.60;6.42;;;;;;;19.58;70.38;95389.64;1787474;80;21021;-59
2021/07/04 08:16:37;;;;;;;7.12;6.42;;;;;;;19.74;71.79;95393.70;1787328;80;21503;-59
2021/07/04 08:19:04;;;;;;;11.40;6.80;;;;;;;19.81;70.08;95397.27;1787618;80;21025;-59
2021/07/04 08:21:30;;;;;;;6.80;5.85;;;;;;;19.88;69.96;95389.72;1787817;80;21017;-58
2021/07/04 08:23:57;;;;;;;6.60;5.75;;;;;;;19.91;68.68;95386.89;1795349;80;20973;-59
2021/07/04 08:26:24;;;;;;;7.72;5.58;;;;;;;19.97;68.89;95395.89;1795999;80;20986;-59
2021/07/04 08:28:51;;;;;;;7.47;6.05;;;;;;;20.00;69.12;95393.50;1796345;79;20977;-59
2021/07/04 08:31:18;;;;;;;6.55;5.70;;;;;;;19.99;69.92;95398.00;1795846;80;20970;-59
2021/07/04 08:33:45;;;;;;;6.47;5.62;;;;;;;19.88;68.49;95394.62;1796404;80;20981;-59
2021/07/04 08:36:13;;;;;;;6.53;5.72;;;;;;;19.91;68.65;95395.38;1796066;80;20978;-59
2021/07/04 08:38:40;;;;;;;6.10;5.60;;;;;;;19.87;69.15;95400.91;1795910;80;21462;-59
2021/07/04 08:41:07;;;;;;;6.17;5.28;;;;;;;19.82;68.49;95404.81;1796556;80;21005;-59
2021/07/04 08:43:36;;;;;;;7.45;5.87;;;;;;;19.78;68.54;95401.47;1796244;79;20961;-59
2021/07/04 08:46:05;;;;;;;6.92;5.65;;;;;;;19.75;68.33;95412.81;1796028;80;21032;-59
2021/07/04 08:48:36;;;;;;;7.95;5.90;;;;;;;19.61;68.73;95411.77;1796382;80;20981;-59
2021/07/04 08:51:05;;;;;;;9.38;5.92;;;;;;;19.51;68.75;95408.37;1796225;80;21593;-59
2021/07/04 08:53:31;;;;;;;6.05;5.45;;;;;;;19.45;69.73;95415.80;1796343;80;20965;-59
2021/07/04 08:55:58;;;;;;;9.33;6.70;;;;;;;19.38;69.36;95410.39;1796537;80;21017;-59
2021/07/04 08:58:26;;;;;;;11.68;6.22;;;;;;;19.35;69.49;95409.23;1795736;80;21005;-59
2021/07/04 09:01:18;;;;;;;8.93;6.53;;;;;;;19.29;69.58;95414.91;1765490;80;21045;-59
2021/07/04 09:03:51;;;;;;;10.75;6.92;;;;;;;19.19;69.59;95404.34;1795871;80;21486;-58
2021/07/04 09:06:45;;;;;;;9.83;8.63;;;;;;;19.18;70.27;95406.16;1796221;79;21028;-59
2021/07/04 09:09:24;;;;;;;11.25;8.98;;;;;;;19.39;70.77;95407.23;1796079;80;21013;-59
2021/07/04 09:12:07;;;;;;;8.15;5.60;;;;;;;19.61;70.20;95401.54;1796251;80;21016;-59
2021/07/04 09:14:48;;;;;;;6.90;5.67;;;;;;;19.94;67.62;95392.54;1796100;80;21009;-59
2021/07/04 09:17:18;;;;;;;5.95;4.45;;;;;;;20.05;65.38;95388.73;1796364;79;21032;-59
2021/07/04 09:19:57;;;;;;;6.20;5.03;;;;;;;20.19;65.22;95390.61;1796091;80;21009;-59
2021/07/04 09:22:38;;;;;;;5.90;5.40;;;;;;;20.27;67.08;95394.54;1796224;80;21012;-59
2021/07/04 09:25:21;;;;;;;7.20;5.83;;;;;;;20.24;65.90;95393.88;1780092;80;21562;-59
2021/07/04 09:28:08;;;;;;;;;;;;;;;20.23;65.83;95392.13;1779540;80;21061;-59
2021/07/04 09:30:40;;;;;;;8.00;5.45;;;;;;;20.19;65.22;95390.13;1777566;80;20121;-59
2021/07/04 09:33:23;;;;;;;6.40;5.03;;;;;;;20.26;66.17;95390.15;1777952;80;21539;-59
2021/07/04 09:36:04;;;;;;;7.95;5.83;;;;;;;20.27;65.17;95389.18;1777331;81;21029;-59
2021/07/04 09:38:40;;;;;;;6.25;5.65;;;;;;;20.26;66.41;95383.45;1778070;81;21488;-59
2021/07/04 09:41:10;;;;;;;6.95;5.67;;;;;;;20.30;66.36;95376.94;1777851;81;21014;-59
2021/07/04 09:43:38;;;;;;;6.53;5.45;;;;;;;20.33;67.48;95375.88;1777774;80;21045;-59
2021/07/04 09:46:12;;;;;;;8.13;5.87;;;;;;;20.30;66.01;95376.94;1777858;81;21061;-59
2021/07/04 09:48:51;;;;;;;7.12;5.90;;;;;;;20.27;66.34;95378.47;1777975;80;21511;-59
2021/07/04 09:51:27;;;;;;;7.53;5.83;;;;;;;20.19;66.71;95381.23;1777590;81;21081;-59
2021/07/04 09:53:59;;;;;;;7.12;5.58;;;;;;;20.17;65.46;95375.95;1777857;81;21026;-59
2021/07/04 09:56:32;;;;;;;8.18;6.60;;;;;;;20.19;63.74;95375.88;1777899;81;20973;-59
2021/07/04 09:59:02;;;;;;;8.20;6.67;;;;;;;20.30;64.58;95374.73;1777721;81;21082;-58
2021/07/04 10:01:39;;;;;;;7.92;5.75;;;;;;;20.42;65.32;95376.68;1777802;80;21484;-59
2021/07/04 10:04:09;;;;;;;6.67;5.62;;;;;;;20.45;63.45;95369.78;1777926;81;21456;-59
2021/07/04 10:06:47;;;;;;;7.42;5.60;;;;;;;20.51;63.36;95366.75;1777836;81;21416;-59
2021/07/04 10:09:14;;;;;;;6.58;5.83;;;;;;;20.62;63.39;95361.23;1775912;80;21033;-59
2021/07/04 10:11:41;;;;;;;8.25;5.65;;;;;;;20.73;62.40;95356.05;1777802;81;21014;-59
2021/07/04 10:14:08;;;;;;;6.20;5.70;;;;;;;20.79;62.58;95358.81;1778164;80;21010;-59
2021/07/04 10:16:35;;;;;;;7.20;6.12;;;;;;;20.94;63.70;95352.48;1777805;81;21448;-59
2021/07/04 10:19:05;;;;;;;6.75;6.05;;;;;;;21.13;63.31;95350.36;1778104;80;21102;-59
2021/07/04 10:21:34;;;;;;;8.93;6.60;;;;;;;21.31;63.92;95360.88;1777838;81;21022;-59
2021/07/04 10:24:01;;;;;;;8.53;6.28;;;;;;;21.43;62.70;95352.55;1777404;80;21065;-59
2021/07/04 10:26:29;;;;;;;7.03;5.62;;;;;;;21.70;62.36;95353.42;1777089;80;21021;-59
2021/07/04 10:28:57;;;;;;;10.38;5.60;;;;;;;21.92;61.10;95341.22;1777690;80;21014;-59
2021/07/04 10:31:25;;;;;;;7.92;5.50;;;;;;;21.93;60.59;95345.16;1734465;81;21097;-59
2021/07/04 10:34:14;;;;;;;6.00;5.40;;;;;;;21.80;60.32;95343.78;1777209;81;20974;-59
2021/07/04 10:37:02;;;;;;;8.28;5.90;;;;;;;21.74;60.07;95337.95;1777593;80;21002;-59
2021/07/04 10:39:32;;;;;;;6.78;6.08;;;;;;;22.03;60.74;95336.00;1777844;81;21100;-59
2021/07/04 10:42:09;;;;;;;10.15;5.17;;;;;;;22.11;58.76;95337.67;1778008;81;21005;-59
2021/07/04 10:44:47;;;;;;;6.00;5.40;;;;;;;22.04;59.43;95343.94;1777297;81;21021;-59
2021/07/04 10:47:27;;;;;;;6.33;5.72;;;;;;;22.08;60.41;95328.98;1778015;81;21531;-59
2021/07/04 10:50:10;;;;;;;6.65;5.78;;;;;;;22.24;59.51;95333.20;1777907;81;21538;-59
2021/07/04 10:52:41;;;;;;;6.92;5.55;;;;;;;22.22;59.29;95324.88;1777785;81;21014;-59
2021/07/04 10:55:12;;;;;;;6.00;5.42;;;;;;;22.40;57.79;95322.73;1777922;81;21054;-59
2021/07/04 10:57:55;;;;;;;6.37;5.22;;;;;;;22.31;57.58;95316.67;1777097;80;21034;-59
2021/07/04 11:00:26;;;;;;;8.28;5.72;;;;;;;22.24;58.60;95318.42;1777969;81;21425;-59
2021/07/04 11:03:03;;;;;;;6.45;5.62;;;;;;;22.22;58.55;95323.53;1777943;80;21362;-59
2021/07/04 11:05:41;;;;;;;7.35;5.97;;;;;;;22.19;58.06;95327.28;1778185;81;20998;-59
2021/07/04 11:08:16;;;;;;;8.20;5.40;;;;;;;22.06;57.79;95327.73;1734495;81;20974;-59
2021/07/04 11:11:08;;;;;;;7.45;5.97;;;;;;;21.79;57.13;95325.08;1777406;81;21006;-59
2021/07/04 11:13:43;;;;;;;7.50;6.03;;;;;;;21.61;59.13;95321.80;1777487;81;21034;-58
2021/07/04 11:16:14;;;;;;;7.80;6.10;;;;;;;21.46;61.86;95329.53;1734653;81;21464;-59
2021/07/04 11:18:47;;;;;;;7.65;6.30;;;;;;;21.37;64.08;95325.12;1777254;80;21559;-59
2021/07/04 11:21:19;;;;;;;7.62;5.67;;;;;;;21.30;62.34;95320.25;1777930;81;21010;-59
2021/07/04 11:23:47;;;;;;;6.30;5.30;;;;;;;21.16;61.40;95323.33;1778900;80;21017;-59
2021/07/04 11:26:17;;;;;;;5.95;5.45;;;;;;;21.31;63.29;95323.30;1787300;80;21343;-59
2021/07/04 11:28:50;;;;;;;7.95;5.35;;;;;;;21.59;62.11;95322.38;1787665;80;21076;-59
2021/07/04 11:31:22;;;;;;;5.78;5.17;;;;;;;21.66;59.26;95318.33;1787702;80;21033;-59
2021/07/04 11:33:51;;;;;;;6.30;5.00;;;;;;;21.66;59.04;95318.33;1787834;80;21037;-59
2021/07/04 11:36:28;;;;;;;6.22;5.53;;;;;;;21.49;58.23;95320.78;1787420;80;21493;-59
2021/07/04 11:39:11;;;;;;;6.30;5.70;;;;;;;21.41;60.12;95320.92;1787649;80;20986;-59
2021/07/04 11:41:43;;;;;;;;;;;;;;;21.12;60.84;95327.68;1790085;80;21049;-59
2021/07/04 11:44:14;;;;;;;6.70;5.87;;;;;;;20.70;62.28;95330.78;1787202;80;20101;-59
2021/07/04 11:46:45;;;;;;;8.80;5.60;;;;;;;20.40;62.87;95329.01;1787001;80;21343;-59
2021/07/04 11:49:18;;;;;;;10.15;6.58;;;;;;;20.22;63.33;95334.16;1787686;80;21041;-59
2021/07/04 11:51:52;;;;;;;10.13;6.80;;;;;;;20.01;67.33;95330.97;1787740;80;21029;-59
2021/07/04 11:54:22;;;;;;;7.75;6.95;;;;;;;19.86;67.41;95334.94;1787440;80;21009;-59
2021/07/04 11:56:56;;;;;;;8.78;7.03;;;;;;;19.74;68.60;95330.79;1787690;80;21064;-59